« Back
NWS Peachtree City, Ga » Text Product » CSG Terminal Aerodrome Forecast


Printer-friendly Version
Current Version              Previous Versions:   1  2  3  4  5  6  7  8  9  

Terminal Aerodrome Forecast

846
FTUS42 KFFC 240100 AAA
TAFCSG
TAF AMD
KCSG 240143Z 2402/2424 00000KT P6SM SCT250
     FM241600 33004KT P6SM FEW200=

USA.gov is the U.S. government's official web portal to all federal, state and local government web resources and services.